sensor_id;sensor_type;location;lat;lon;timestamp;P1;durP1;ratioP1;P2;durP2;ratioP2
77955;SDS011;67152;36.266;32.294;2023-04-24T00:01:45;12.15;;;4.03;;
77955;SDS011;67152;36.266;32.294;2023-04-24T00:04:12;5.95;;;3.60;;
77955;SDS011;67152;36.266;32.294;2023-04-24T00:06:42;8.93;;;3.55;;
77955;SDS011;67152;36.266;32.294;2023-04-24T00:09:09;8.73;;;3.88;;
77955;SDS011;67152;36.266;32.294;2023-04-24T00:11:36;6.95;;;3.15;;
77955;SDS011;67152;36.266;32.294;2023-04-24T00:14:03;7.72;;;3.60;;
77955;SDS011;67152;36.266;32.294;2023-04-24T00:16:30;7.38;;;3.58;;
77955;SDS011;67152;36.266;32.294;2023-04-24T00:18:56;7.72;;;3.45;;
77955;SDS011;67152;36.266;32.294;2023-04-24T00:21:24;12.68;;;3.60;;
77955;SDS011;67152;36.266;32.294;2023-04-24T00:23:51;4.72;;;3.00;;
77955;SDS011;67152;36.266;32.294;2023-04-24T00:26:18;5.60;;;3.53;;
77955;SDS011;67152;36.266;32.294;2023-04-24T00:28:45;7.83;;;3.70;;
77955;SDS011;67152;36.266;32.294;2023-04-24T00:31:12;9.00;;;3.75;;
77955;SDS011;67152;36.266;32.294;2023-04-24T00:33:39;9.63;;;4.10;;
77955;SDS011;67152;36.266;32.294;2023-04-24T00:36:05;6.35;;;4.15;;
77955;SDS011;67152;36.266;32.294;2023-04-24T00:38:33;6.43;;;4.30;;
77955;SDS011;67152;36.266;32.294;2023-04-24T00:41:00;11.02;;;4.38;;
77955;SDS011;67152;36.266;32.294;2023-04-24T00:43:26;6.63;;;4.22;;
77955;SDS011;67152;36.266;32.294;2023-04-24T00:45:53;10.63;;;3.92;;
77955;SDS011;67152;36.266;32.294;2023-04-24T00:48:21;9.40;;;4.05;;
77955;SDS011;67152;36.266;32.294;2023-04-24T00:50:48;5.88;;;3.63;;
77955;SDS011;67152;36.266;32.294;2023-04-24T00:53:14;5.55;;;4.10;;
77955;SDS011;67152;36.266;32.294;2023-04-24T00:55:41;6.03;;;4.00;;
77955;SDS011;67152;36.266;32.294;2023-04-24T00:58:08;4.67;;;3.87;;
77955;SDS011;67152;36.266;32.294;2023-04-24T01:00:35;9.93;;;3.80;;
77955;SDS011;67152;36.266;32.294;2023-04-24T01:03:02;6.47;;;3.65;;
77955;SDS011;67152;36.266;32.294;2023-04-24T01:05:31;5.75;;;3.60;;
77955;SDS011;67152;36.266;32.294;2023-04-24T01:07:58;9.40;;;4.43;;
77955;SDS011;67152;36.266;32.294;2023-04-24T01:10:25;7.80;;;4.00;;
77955;SDS011;67152;36.266;32.294;2023-04-24T01:12:53;8.98;;;3.90;;
77955;SDS011;67152;36.266;32.294;2023-04-24T01:15:20;5.77;;;3.53;;
77955;SDS011;67152;36.266;32.294;2023-04-24T01:17:47;6.95;;;3.60;;
77955;SDS011;67152;36.266;32.294;2023-04-24T01:20:13;6.80;;;3.47;;
77955;SDS011;67152;36.266;32.294;2023-04-24T01:22:41;6.63;;;3.80;;
77955;SDS011;67152;36.266;32.294;2023-04-24T01:25:08;8.50;;;3.97;;
77955;SDS011;67152;36.266;32.294;2023-04-24T01:27:35;6.57;;;3.90;;
77955;SDS011;67152;36.266;32.294;2023-04-24T01:30:02;9.18;;;4.07;;
77955;SDS011;67152;36.266;32.294;2023-04-24T01:32:31;7.18;;;3.50;;
77955;SDS011;67152;36.266;32.294;2023-04-24T01:34:57;6.45;;;3.28;;
77955;SDS011;67152;36.266;32.294;2023-04-24T01:37:24;6.88;;;3.33;;
77955;SDS011;67152;36.266;32.294;2023-04-24T01:39:52;7.18;;;3.45;;
77955;SDS011;67152;36.266;32.294;2023-04-24T01:42:19;4.28;;;3.25;;
77955;SDS011;67152;36.266;32.294;2023-04-24T01:44:46;7.32;;;3.67;;
77955;SDS011;67152;36.266;32.294;2023-04-24T01:47:13;6.38;;;3.20;;
77955;SDS011;67152;36.266;32.294;2023-04-24T01:49:40;4.78;;;2.58;;
77955;SDS011;67152;36.266;32.294;2023-04-24T01:52:07;6.37;;;3.27;;
77955;SDS011;67152;36.266;32.294;2023-04-24T01:54:33;5.32;;;3.15;;
77955;SDS011;67152;36.266;32.294;2023-04-24T01:57:00;5.87;;;3.50;;
77955;SDS011;67152;36.266;32.294;2023-04-24T02:01:54;12.88;;;3.58;;
77955;SDS011;67152;36.266;32.294;2023-04-24T02:04:21;7.80;;;3.47;;
77955;SDS011;67152;36.266;32.294;2023-04-24T02:06:48;7.00;;;3.95;;
77955;SDS011;67152;36.266;32.294;2023-04-24T02:09:15;6.38;;;3.70;;
77955;SDS011;67152;36.266;32.294;2023-04-24T02:11:41;6.85;;;3.50;;
77955;SDS011;67152;36.266;32.294;2023-04-24T02:14:08;6.30;;;3.33;;
77955;SDS011;67152;36.266;32.294;2023-04-24T02:16:35;5.28;;;3.40;;
77955;SDS011;67152;36.266;32.294;2023-04-24T02:19:02;4.60;;;2.85;;
77955;SDS011;67152;36.266;32.294;2023-04-24T02:21:29;4.75;;;3.50;;
77955;SDS011;67152;36.266;32.294;2023-04-24T02:23:57;7.40;;;3.40;;
77955;SDS011;67152;36.266;32.294;2023-04-24T02:26:23;5.73;;;3.53;;
77955;SDS011;67152;36.266;32.294;2023-04-24T02:28:50;8.60;;;4.03;;
77955;SDS011;67152;36.266;32.294;2023-04-24T02:31:17;5.77;;;3.57;;
77955;SDS011;67152;36.266;32.294;2023-04-24T02:33:44;10.98;;;3.92;;
77955;SDS011;67152;36.266;32.294;2023-04-24T02:36:11;5.60;;;3.17;;
77955;SDS011;67152;36.266;32.294;2023-04-24T02:38:38;7.40;;;3.95;;
77955;SDS011;67152;36.266;32.294;2023-04-24T02:41:05;14.23;;;3.80;;
77955;SDS011;67152;36.266;32.294;2023-04-24T02:43:32;8.25;;;3.97;;
77955;SDS011;67152;36.266;32.294;2023-04-24T02:45:59;8.48;;;4.20;;
77955;SDS011;67152;36.266;32.294;2023-04-24T02:48:26;6.40;;;4.32;;
77955;SDS011;67152;36.266;32.294;2023-04-24T02:50:52;5.65;;;3.28;;
77955;SDS011;67152;36.266;32.294;2023-04-24T02:53:20;5.07;;;4.00;;
77955;SDS011;67152;36.266;32.294;2023-04-24T02:55:47;5.80;;;3.67;;
77955;SDS011;67152;36.266;32.294;2023-04-24T02:58:14;6.95;;;3.65;;
77955;SDS011;67152;36.266;32.294;2023-04-24T03:00:41;6.63;;;3.22;;
77955;SDS011;67152;36.266;32.294;2023-04-24T03:03:09;5.90;;;3.53;;
77955;SDS011;67152;36.266;32.294;2023-04-24T03:05:35;3.55;;;2.95;;
77955;SDS011;67152;36.266;32.294;2023-04-24T03:08:02;4.78;;;2.88;;
77955;SDS011;67152;36.266;32.294;2023-04-24T03:10:29;8.13;;;3.10;;
77955;SDS011;67152;36.266;32.294;2023-04-24T03:12:56;5.57;;;3.38;;
77955;SDS011;67152;36.266;32.294;2023-04-24T03:15:23;4.03;;;2.05;;
77955;SDS011;67152;36.266;32.294;2023-04-24T03:17:50;5.85;;;2.75;;
77955;SDS011;67152;36.266;32.294;2023-04-24T03:20:16;4.28;;;2.80;;
77955;SDS011;67152;36.266;32.294;2023-04-24T03:22:43;4.13;;;2.97;;
77955;SDS011;67152;36.266;32.294;2023-04-24T03:25:10;23.17;;;6.90;;
77955;SDS011;67152;36.266;32.294;2023-04-24T03:27:37;4.07;;;2.67;;
77955;SDS011;67152;36.266;32.294;2023-04-24T03:32:32;10.27;;;3.10;;
77955;SDS011;67152;36.266;32.294;2023-04-24T03:34:59;4.65;;;3.13;;
77955;SDS011;67152;36.266;32.294;2023-04-24T03:37:26;11.02;;;3.25;;
77955;SDS011;67152;36.266;32.294;2023-04-24T03:39:53;5.20;;;3.00;;
77955;SDS011;67152;36.266;32.294;2023-04-24T03:42:19;4.47;;;3.33;;
77955;SDS011;67152;36.266;32.294;2023-04-24T03:44:46;9.25;;;3.13;;
77955;SDS011;67152;36.266;32.294;2023-04-24T03:47:13;5.40;;;2.90;;
77955;SDS011;67152;36.266;32.294;2023-04-24T03:49:39;9.32;;;2.80;;
77955;SDS011;67152;36.266;32.294;2023-04-24T03:52:06;7.38;;;3.90;;
77955;SDS011;67152;36.266;32.294;2023-04-24T03:54:33;9.15;;;3.15;;
77955;SDS011;67152;36.266;32.294;2023-04-24T03:57:00;8.10;;;2.65;;
77955;SDS011;67152;36.266;32.294;2023-04-24T03:59:27;8.40;;;3.08;;
77955;SDS011;67152;36.266;32.294;2023-04-24T04:01:54;6.28;;;2.75;;
77955;SDS011;67152;36.266;32.294;2023-04-24T04:04:20;2.60;;;1.90;;
77955;SDS011;67152;36.266;32.294;2023-04-24T04:06:47;4.25;;;2.72;;
77955;SDS011;67152;36.266;32.294;2023-04-24T04:09:14;5.78;;;2.88;;
77955;SDS011;67152;36.266;32.294;2023-04-24T04:11:41;8.30;;;2.87;;
77955;SDS011;67152;36.266;32.294;2023-04-24T04:14:08;5.73;;;3.03;;
77955;SDS011;67152;36.266;32.294;2023-04-24T04:16:35;5.57;;;2.78;;
77955;SDS011;67152;36.266;32.294;2023-04-24T04:19:02;8.27;;;3.05;;
77955;SDS011;67152;36.266;32.294;2023-04-24T04:21:29;11.47;;;3.07;;
77955;SDS011;67152;36.266;32.294;2023-04-24T04:23:57;5.55;;;3.28;;
77955;SDS011;67152;36.266;32.294;2023-04-24T04:26:23;15.75;;;3.33;;
77955;SDS011;67152;36.266;32.294;2023-04-24T04:28:51;5.93;;;3.47;;
77955;SDS011;67152;36.266;32.294;2023-04-24T04:31:22;12.05;;;3.25;;
77955;SDS011;67152;36.266;32.294;2023-04-24T04:33:49;9.55;;;2.95;;
77955;SDS011;67152;36.266;32.294;2023-04-24T04:36:16;11.85;;;4.15;;
77955;SDS011;67152;36.266;32.294;2023-04-24T04:38:44;9.07;;;3.00;;
77955;SDS011;67152;36.266;32.294;2023-04-24T04:41:11;5.80;;;2.63;;
77955;SDS011;67152;36.266;32.294;2023-04-24T04:43:38;5.55;;;3.20;;
77955;SDS011;67152;36.266;32.294;2023-04-24T04:46:06;5.05;;;2.88;;
77955;SDS011;67152;36.266;32.294;2023-04-24T04:48:34;10.38;;;3.10;;
77955;SDS011;67152;36.266;32.294;2023-04-24T04:51:01;10.95;;;3.05;;
77955;SDS011;67152;36.266;32.294;2023-04-24T04:53:28;8.20;;;3.28;;
77955;SDS011;67152;36.266;32.294;2023-04-24T04:58:22;16.80;;;3.47;;
77955;SDS011;67152;36.266;32.294;2023-04-24T05:00:48;9.57;;;3.65;;
77955;SDS011;67152;36.266;32.294;2023-04-24T05:03:16;7.30;;;3.60;;
77955;SDS011;67152;36.266;32.294;2023-04-24T05:05:43;14.05;;;3.72;;
77955;SDS011;67152;36.266;32.294;2023-04-24T05:08:09;11.88;;;3.70;;
77955;SDS011;67152;36.266;32.294;2023-04-24T05:10:36;9.00;;;3.40;;
77955;SDS011;67152;36.266;32.294;2023-04-24T05:13:03;10.45;;;3.28;;
77955;SDS011;67152;36.266;32.294;2023-04-24T05:15:30;8.80;;;3.08;;
77955;SDS011;67152;36.266;32.294;2023-04-24T05:17:57;8.13;;;3.70;;
77955;SDS011;67152;36.266;32.294;2023-04-24T05:22:51;12.98;;;4.13;;
77955;SDS011;67152;36.266;32.294;2023-04-24T05:25:18;6.93;;;3.10;;
77955;SDS011;67152;36.266;32.294;2023-04-24T05:27:44;6.03;;;3.22;;
77955;SDS011;67152;36.266;32.294;2023-04-24T05:35:04;7.47;;;2.83;;
77955;SDS011;67152;36.266;32.294;2023-04-24T05:37:31;10.98;;;2.67;;
77955;SDS011;67152;36.266;32.294;2023-04-24T05:39:58;10.93;;;3.22;;
77955;SDS011;67152;36.266;32.294;2023-04-24T05:42:24;14.70;;;3.13;;
77955;SDS011;67152;36.266;32.294;2023-04-24T05:44:51;5.35;;;2.50;;
77955;SDS011;67152;36.266;32.294;2023-04-24T05:47:19;16.85;;;2.78;;
77955;SDS011;67152;36.266;32.294;2023-04-24T05:49:48;12.35;;;2.92;;
77955;SDS011;67152;36.266;32.294;2023-04-24T05:52:14;13.90;;;2.92;;
77955;SDS011;67152;36.266;32.294;2023-04-24T05:54:41;11.05;;;2.60;;
77955;SDS011;67152;36.266;32.294;2023-04-24T05:59:36;14.05;;;3.25;;
77955;SDS011;67152;36.266;32.294;2023-04-24T06:02:07;9.73;;;3.13;;
77955;SDS011;67152;36.266;32.294;2023-04-24T06:04:34;16.40;;;3.83;;
77955;SDS011;67152;36.266;32.294;2023-04-24T06:07:01;14.90;;;3.47;;
77955;SDS011;67152;36.266;32.294;2023-04-24T06:09:28;17.33;;;3.72;;
77955;SDS011;67152;36.266;32.294;2023-04-24T06:11:55;11.20;;;3.97;;
77955;SDS011;67152;36.266;32.294;2023-04-24T06:19:15;12.27;;;4.78;;
77955;SDS011;67152;36.266;32.294;2023-04-24T06:26:35;11.07;;;4.80;;
77955;SDS011;67152;36.266;32.294;2023-04-24T06:29:02;9.13;;;4.10;;
77955;SDS011;67152;36.266;32.294;2023-04-24T06:33:55;16.25;;;4.30;;
77955;SDS011;67152;36.266;32.294;2023-04-24T06:36:22;11.25;;;4.47;;
77955;SDS011;67152;36.266;32.294;2023-04-24T06:38:49;12.80;;;4.10;;
77955;SDS011;67152;36.266;32.294;2023-04-24T06:41:16;11.55;;;4.85;;
77955;SDS011;67152;36.266;32.294;2023-04-24T06:43:43;8.88;;;4.38;;
77955;SDS011;67152;36.266;32.294;2023-04-24T06:46:10;21.88;;;4.72;;
77955;SDS011;67152;36.266;32.294;2023-04-24T06:48:38;9.00;;;5.25;;
77955;SDS011;67152;36.266;32.294;2023-04-24T06:51:07;10.35;;;4.55;;
77955;SDS011;67152;36.266;32.294;2023-04-24T06:53:35;7.63;;;4.70;;
77955;SDS011;67152;36.266;32.294;2023-04-24T06:56:02;16.38;;;5.25;;
77955;SDS011;67152;36.266;32.294;2023-04-24T06:58:30;10.80;;;5.35;;
77955;SDS011;67152;36.266;32.294;2023-04-24T07:00:57;63.17;;;6.65;;
77955;SDS011;67152;36.266;32.294;2023-04-24T07:05:51;13.30;;;4.78;;
77955;SDS011;67152;36.266;32.294;2023-04-24T07:08:19;17.05;;;4.70;;
77955;SDS011;67152;36.266;32.294;2023-04-24T07:10:48;8.95;;;4.72;;
77955;SDS011;67152;36.266;32.294;2023-04-24T07:13:16;9.27;;;4.45;;
77955;SDS011;67152;36.266;32.294;2023-04-24T07:15:43;8.52;;;4.07;;
77955;SDS011;67152;36.266;32.294;2023-04-24T07:18:10;12.93;;;4.28;;
77955;SDS011;67152;36.266;32.294;2023-04-24T07:20:37;13.00;;;4.32;;
77955;SDS011;67152;36.266;32.294;2023-04-24T07:23:03;5.78;;;3.95;;
77955;SDS011;67152;36.266;32.294;2023-04-24T07:25:30;9.40;;;4.85;;
77955;SDS011;67152;36.266;32.294;2023-04-24T07:27:57;10.23;;;4.60;;
77955;SDS011;67152;36.266;32.294;2023-04-24T07:30:24;48.63;;;5.97;;
77955;SDS011;67152;36.266;32.294;2023-04-24T07:32:51;9.35;;;4.22;;
77955;SDS011;67152;36.266;32.294;2023-04-24T07:35:18;19.40;;;4.80;;
77955;SDS011;67152;36.266;32.294;2023-04-24T07:37:46;9.50;;;4.20;;
77955;SDS011;67152;36.266;32.294;2023-04-24T07:40:13;9.82;;;4.25;;
77955;SDS011;67152;36.266;32.294;2023-04-24T07:42:40;13.18;;;4.30;;
77955;SDS011;67152;36.266;32.294;2023-04-24T07:47:33;7.45;;;4.18;;
77955;SDS011;67152;36.266;32.294;2023-04-24T07:50:01;8.40;;;4.20;;
77955;SDS011;67152;36.266;32.294;2023-04-24T07:52:28;9.50;;;4.22;;
77955;SDS011;67152;36.266;32.294;2023-04-24T07:54:54;11.15;;;4.47;;
77955;SDS011;67152;36.266;32.294;2023-04-24T07:57:24;11.98;;;4.15;;
77955;SDS011;67152;36.266;32.294;2023-04-24T07:59:51;14.15;;;4.60;;
77955;SDS011;67152;36.266;32.294;2023-04-24T08:02:18;16.33;;;5.03;;
77955;SDS011;67152;36.266;32.294;2023-04-24T08:04:45;15.25;;;4.38;;
77955;SDS011;67152;36.266;32.294;2023-04-24T08:07:12;78.65;;;7.70;;
77955;SDS011;67152;36.266;32.294;2023-04-24T08:09:39;26.95;;;5.35;;
77955;SDS011;67152;36.266;32.294;2023-04-24T08:12:05;14.88;;;4.57;;
77955;SDS011;67152;36.266;32.294;2023-04-24T08:14:32;42.10;;;5.85;;
77955;SDS011;67152;36.266;32.294;2023-04-24T08:16:59;11.25;;;4.13;;
77955;SDS011;67152;36.266;32.294;2023-04-24T08:19:27;30.88;;;4.60;;
77955;SDS011;67152;36.266;32.294;2023-04-24T08:21:54;13.43;;;3.88;;
77955;SDS011;67152;36.266;32.294;2023-04-24T08:26:48;6.55;;;3.33;;
77955;SDS011;67152;36.266;32.294;2023-04-24T08:29:20;12.77;;;3.90;;
77955;SDS011;67152;36.266;32.294;2023-04-24T08:32:07;22.70;;;4.50;;
77955;SDS011;67152;36.266;32.294;2023-04-24T08:34:34;18.70;;;4.57;;
77955;SDS011;67152;36.266;32.294;2023-04-24T08:37:00;9.85;;;4.18;;
77955;SDS011;67152;36.266;32.294;2023-04-24T08:39:27;7.18;;;3.90;;
77955;SDS011;67152;36.266;32.294;2023-04-24T08:41:55;7.43;;;3.95;;
77955;SDS011;67152;36.266;32.294;2023-04-24T08:44:22;7.22;;;3.97;;
77955;SDS011;67152;36.266;32.294;2023-04-24T08:46:49;8.50;;;4.28;;
77955;SDS011;67152;36.266;32.294;2023-04-24T08:49:17;11.80;;;4.00;;
77955;SDS011;67152;36.266;32.294;2023-04-24T08:54:11;7.47;;;3.80;;
77955;SDS011;67152;36.266;32.294;2023-04-24T08:56:39;7.40;;;4.50;;
77955;SDS011;67152;36.266;32.294;2023-04-24T08:59:07;28.92;;;4.75;;
77955;SDS011;67152;36.266;32.294;2023-04-24T09:01:35;6.30;;;3.90;;
77955;SDS011;67152;36.266;32.294;2023-04-24T09:04:06;16.92;;;4.32;;
77955;SDS011;67152;36.266;32.294;2023-04-24T09:06:35;9.68;;;4.03;;
77955;SDS011;67152;36.266;32.294;2023-04-24T09:11:30;9.45;;;3.95;;
77955;SDS011;67152;36.266;32.294;2023-04-24T09:13:58;8.65;;;3.85;;
77955;SDS011;67152;36.266;32.294;2023-04-24T09:16:26;10.00;;;4.15;;
77955;SDS011;67152;36.266;32.294;2023-04-24T09:18:55;9.43;;;4.57;;
77955;SDS011;67152;36.266;32.294;2023-04-24T09:21:22;9.43;;;4.32;;
77955;SDS011;67152;36.266;32.294;2023-04-24T09:23:59;5.38;;;3.70;;
77955;SDS011;67152;36.266;32.294;2023-04-24T09:26:37;58.72;;;5.82;;
77955;SDS011;67152;36.266;32.294;2023-04-24T09:29:03;8.32;;;4.70;;
77955;SDS011;67152;36.266;32.294;2023-04-24T09:31:31;58.88;;;8.07;;
77955;SDS011;67152;36.266;32.294;2023-04-24T09:33:59;15.45;;;4.20;;
77955;SDS011;67152;36.266;32.294;2023-04-24T09:36:27;14.77;;;4.57;;
77955;SDS011;67152;36.266;32.294;2023-04-24T09:39:04;6.20;;;4.03;;
77955;SDS011;67152;36.266;32.294;2023-04-24T09:41:32;21.58;;;4.35;;
77955;SDS011;67152;36.266;32.294;2023-04-24T09:44:12;9.65;;;4.13;;
77955;SDS011;67152;36.266;32.294;2023-04-24T09:46:42;14.73;;;5.28;;
77955;SDS011;67152;36.266;32.294;2023-04-24T09:49:12;9.38;;;4.20;;
77955;SDS011;67152;36.266;32.294;2023-04-24T09:51:39;10.07;;;4.30;;
77955;SDS011;67152;36.266;32.294;2023-04-24T09:54:16;8.65;;;4.60;;
77955;SDS011;67152;36.266;32.294;2023-04-24T09:56:48;32.92;;;5.32;;
77955;SDS011;67152;36.266;32.294;2023-04-24T09:59:18;9.88;;;4.50;;
77955;SDS011;67152;36.266;32.294;2023-04-24T10:01:46;15.40;;;4.70;;
77955;SDS011;67152;36.266;32.294;2023-04-24T10:04:22;9.77;;;4.00;;
77955;SDS011;67152;36.266;32.294;2023-04-24T10:06:50;6.50;;;4.30;;
77955;SDS011;67152;36.266;32.294;2023-04-24T10:09:19;9.75;;;4.65;;
77955;SDS011;67152;36.266;32.294;2023-04-24T10:11:47;18.40;;;5.10;;
77955;SDS011;67152;36.266;32.294;2023-04-24T10:14:20;20.70;;;4.40;;
77955;SDS011;67152;36.266;32.294;2023-04-24T10:16:48;19.52;;;4.10;;
77955;SDS011;67152;36.266;32.294;2023-04-24T10:19:17;9.38;;;4.30;;
77955;SDS011;67152;36.266;32.294;2023-04-24T10:24:14;7.60;;;3.47;;
77955;SDS011;67152;36.266;32.294;2023-04-24T10:26:44;9.50;;;3.92;;
77955;SDS011;67152;36.266;32.294;2023-04-24T10:29:12;5.50;;;3.50;;
77955;SDS011;67152;36.266;32.294;2023-04-24T10:31:41;9.00;;;3.45;;
77955;SDS011;67152;36.266;32.294;2023-04-24T10:34:09;9.77;;;4.30;;
77955;SDS011;67152;36.266;32.294;2023-04-24T10:36:36;11.18;;;4.25;;
77955;SDS011;67152;36.266;32.294;2023-04-24T10:39:07;8.30;;;4.60;;
77955;SDS011;67152;36.266;32.294;2023-04-24T10:41:39;7.15;;;4.22;;
77955;SDS011;67152;36.266;32.294;2023-04-24T10:44:13;5.38;;;3.35;;
77955;SDS011;67152;36.266;32.294;2023-04-24T10:46:44;7.53;;;4.25;;
77955;SDS011;67152;36.266;32.294;2023-04-24T10:49:12;13.85;;;4.53;;
77955;SDS011;67152;36.266;32.294;2023-04-24T10:54:48;21.38;;;4.75;;
77955;SDS011;67152;36.266;32.294;2023-04-24T11:00:09;8.07;;;4.38;;
77955;SDS011;67152;36.266;32.294;2023-04-24T11:02:45;9.90;;;4.32;;
77955;SDS011;67152;36.266;32.294;2023-04-24T11:05:15;5.70;;;4.60;;
77955;SDS011;67152;36.266;32.294;2023-04-24T11:10:46;10.25;;;4.28;;
77955;SDS011;67152;36.266;32.294;2023-04-24T11:13:16;8.60;;;4.47;;
77955;SDS011;67152;36.266;32.294;2023-04-24T11:15:43;11.52;;;4.60;;
77955;SDS011;67152;36.266;32.294;2023-04-24T11:18:14;16.83;;;4.80;;
77955;SDS011;67152;36.266;32.294;2023-04-24T11:20:42;7.10;;;3.72;;
77955;SDS011;67152;36.266;32.294;2023-04-24T11:23:11;19.98;;;5.15;;
77955;SDS011;67152;36.266;32.294;2023-04-24T11:25:39;6.10;;;4.03;;
77955;SDS011;67152;36.266;32.294;2023-04-24T11:28:06;11.45;;;4.60;;
77955;SDS011;67152;36.266;32.294;2023-04-24T11:30:33;7.82;;;4.72;;
77955;SDS011;67152;36.266;32.294;2023-04-24T11:33:05;8.82;;;4.30;;
77955;SDS011;67152;36.266;32.294;2023-04-24T11:35:40;12.68;;;4.80;;
77955;SDS011;67152;36.266;32.294;2023-04-24T11:38:14;7.93;;;4.22;;
77955;SDS011;67152;36.266;32.294;2023-04-24T11:40:51;6.63;;;3.47;;
77955;SDS011;67152;36.266;32.294;2023-04-24T11:43:20;15.77;;;4.38;;
77955;SDS011;67152;36.266;32.294;2023-04-24T11:45:49;8.60;;;4.18;;
77955;SDS011;67152;36.266;32.294;2023-04-24T11:48:19;9.23;;;4.07;;
77955;SDS011;67152;36.266;32.294;2023-04-24T11:50:47;5.05;;;3.75;;
77955;SDS011;67152;36.266;32.294;2023-04-24T11:53:13;9.38;;;4.20;;
77955;SDS011;67152;36.266;32.294;2023-04-24T11:55:40;9.23;;;4.10;;
77955;SDS011;67152;36.266;32.294;2023-04-24T11:58:07;8.93;;;3.83;;
77955;SDS011;67152;36.266;32.294;2023-04-24T12:03:08;19.67;;;4.60;;
77955;SDS011;67152;36.266;32.294;2023-04-24T12:05:37;7.75;;;3.65;;
77955;SDS011;67152;36.266;32.294;2023-04-24T12:08:04;13.68;;;3.13;;
77955;SDS011;67152;36.266;32.294;2023-04-24T12:10:32;31.83;;;5.32;;
77955;SDS011;67152;36.266;32.294;2023-04-24T12:13:00;18.85;;;4.10;;
77955;SDS011;67152;36.266;32.294;2023-04-24T12:15:27;8.55;;;3.55;;
77955;SDS011;67152;36.266;32.294;2023-04-24T12:20:24;6.93;;;3.53;;
77955;SDS011;67152;36.266;32.294;2023-04-24T12:22:55;10.27;;;3.90;;
77955;SDS011;67152;36.266;32.294;2023-04-24T12:25:24;5.97;;;3.72;;
77955;SDS011;67152;36.266;32.294;2023-04-24T12:27:55;9.10;;;4.40;;
77955;SDS011;67152;36.266;32.294;2023-04-24T12:30:32;5.10;;;3.60;;
77955;SDS011;67152;36.266;32.294;2023-04-24T12:33:00;30.05;;;5.13;;
77955;SDS011;67152;36.266;32.294;2023-04-24T12:35:29;8.15;;;3.88;;
77955;SDS011;67152;36.266;32.294;2023-04-24T12:40:34;13.25;;;4.88;;
77955;SDS011;67152;36.266;32.294;2023-04-24T12:45:27;11.20;;;4.43;;
77955;SDS011;67152;36.266;32.294;2023-04-24T12:47:54;8.85;;;4.35;;
77955;SDS011;67152;36.266;32.294;2023-04-24T12:50:21;13.48;;;4.43;;
77955;SDS011;67152;36.266;32.294;2023-04-24T12:52:48;8.23;;;3.67;;
77955;SDS011;67152;36.266;32.294;2023-04-24T12:57:42;42.67;;;5.05;;
77955;SDS011;67152;36.266;32.294;2023-04-24T13:00:09;7.72;;;3.40;;
77955;SDS011;67152;36.266;32.294;2023-04-24T13:02:36;5.18;;;3.40;;
77955;SDS011;67152;36.266;32.294;2023-04-24T13:05:03;4.90;;;3.03;;
77955;SDS011;67152;36.266;32.294;2023-04-24T13:07:31;17.38;;;3.70;;
77955;SDS011;67152;36.266;32.294;2023-04-24T13:12:25;8.15;;;3.45;;
77955;SDS011;67152;36.266;32.294;2023-04-24T13:14:52;5.05;;;3.38;;
77955;SDS011;67152;36.266;32.294;2023-04-24T13:17:19;7.28;;;3.00;;
77955;SDS011;67152;36.266;32.294;2023-04-24T13:19:46;12.38;;;2.97;;
77955;SDS011;67152;36.266;32.294;2023-04-24T13:22:13;4.72;;;2.80;;
77955;SDS011;67152;36.266;32.294;2023-04-24T13:27:07;5.68;;;3.08;;
77955;SDS011;67152;36.266;32.294;2023-04-24T13:29:35;6.20;;;2.70;;
77955;SDS011;67152;36.266;32.294;2023-04-24T13:32:02;6.55;;;2.47;;
77955;SDS011;67152;36.266;32.294;2023-04-24T13:36:56;4.45;;;2.60;;
77955;SDS011;67152;36.266;32.294;2023-04-24T13:39:24;4.45;;;2.45;;
77955;SDS011;67152;36.266;32.294;2023-04-24T13:41:52;3.55;;;2.67;;
77955;SDS011;67152;36.266;32.294;2023-04-24T13:44:19;3.08;;;2.40;;
77955;SDS011;67152;36.266;32.294;2023-04-24T13:46:49;5.28;;;2.67;;
77955;SDS011;67152;36.266;32.294;2023-04-24T13:49:17;6.55;;;2.70;;
77955;SDS011;67152;36.266;32.294;2023-04-24T13:51:44;6.38;;;2.78;;
77955;SDS011;67152;36.266;32.294;2023-04-24T13:54:11;5.72;;;2.90;;
77955;SDS011;67152;36.266;32.294;2023-04-24T13:56:40;6.55;;;3.10;;
77955;SDS011;67152;36.266;32.294;2023-04-24T13:59:06;5.93;;;3.10;;
77955;SDS011;67152;36.266;32.294;2023-04-24T14:01:34;6.93;;;2.90;;
77955;SDS011;67152;36.266;32.294;2023-04-24T14:04:01;5.28;;;3.10;;
77955;SDS011;67152;36.266;32.294;2023-04-24T14:08:55;11.60;;;3.70;;
77955;SDS011;67152;36.266;32.294;2023-04-24T14:11:22;5.90;;;3.42;;
77955;SDS011;67152;36.266;32.294;2023-04-24T14:13:49;4.28;;;3.10;;
77955;SDS011;67152;36.266;32.294;2023-04-24T14:16:16;4.65;;;3.10;;
77955;SDS011;67152;36.266;32.294;2023-04-24T14:18:43;5.80;;;3.15;;
77955;SDS011;67152;36.266;32.294;2023-04-24T14:21:10;9.38;;;3.33;;
77955;SDS011;67152;36.266;32.294;2023-04-24T14:23:37;6.40;;;3.03;;
77955;SDS011;67152;36.266;32.294;2023-04-24T14:26:04;5.22;;;3.03;;
77955;SDS011;67152;36.266;32.294;2023-04-24T14:28:32;5.15;;;2.88;;
77955;SDS011;67152;36.266;32.294;2023-04-24T14:30:59;8.10;;;4.07;;
77955;SDS011;67152;36.266;32.294;2023-04-24T14:33:26;6.95;;;3.15;;
77955;SDS011;67152;36.266;32.294;2023-04-24T14:35:53;6.03;;;3.42;;
77955;SDS011;67152;36.266;32.294;2023-04-24T14:38:21;4.95;;;3.35;;
77955;SDS011;67152;36.266;32.294;2023-04-24T14:40:48;5.95;;;3.63;;
77955;SDS011;67152;36.266;32.294;2023-04-24T14:43:15;5.28;;;3.60;;
77955;SDS011;67152;36.266;32.294;2023-04-24T14:45:42;8.05;;;3.63;;
77955;SDS011;67152;36.266;32.294;2023-04-24T14:48:09;7.55;;;3.40;;
77955;SDS011;67152;36.266;32.294;2023-04-24T14:50:37;15.13;;;4.05;;
77955;SDS011;67152;36.266;32.294;2023-04-24T14:53:04;7.10;;;3.53;;
77955;SDS011;67152;36.266;32.294;2023-04-24T14:55:31;8.82;;;3.38;;
77955;SDS011;67152;36.266;32.294;2023-04-24T14:57:59;13.68;;;3.83;;
77955;SDS011;67152;36.266;32.294;2023-04-24T15:00:26;7.35;;;3.70;;
77955;SDS011;67152;36.266;32.294;2023-04-24T15:02:52;10.75;;;4.20;;
77955;SDS011;67152;36.266;32.294;2023-04-24T15:05:20;123.35;;;8.43;;
77955;SDS011;67152;36.266;32.294;2023-04-24T15:07:48;13.65;;;4.55;;
77955;SDS011;67152;36.266;32.294;2023-04-24T15:10:18;11.18;;;4.90;;
77955;SDS011;67152;36.266;32.294;2023-04-24T15:12:44;25.08;;;5.03;;
77955;SDS011;67152;36.266;32.294;2023-04-24T15:15:11;13.50;;;5.05;;
77955;SDS011;67152;36.266;32.294;2023-04-24T15:17:38;13.70;;;5.28;;
77955;SDS011;67152;36.266;32.294;2023-04-24T15:22:32;14.35;;;5.70;;
77955;SDS011;67152;36.266;32.294;2023-04-24T15:24:59;10.25;;;5.35;;
77955;SDS011;67152;36.266;32.294;2023-04-24T15:27:27;24.10;;;5.30;;
77955;SDS011;67152;36.266;32.294;2023-04-24T15:29:54;8.50;;;4.53;;
77955;SDS011;67152;36.266;32.294;2023-04-24T15:32:20;13.98;;;6.07;;
77955;SDS011;67152;36.266;32.294;2023-04-24T15:34:47;10.35;;;4.88;;
77955;SDS011;67152;36.266;32.294;2023-04-24T15:37:14;11.95;;;5.13;;
77955;SDS011;67152;36.266;32.294;2023-04-24T15:39:41;15.40;;;5.93;;
77955;SDS011;67152;36.266;32.294;2023-04-24T15:42:11;11.20;;;5.72;;
77955;SDS011;67152;36.266;32.294;2023-04-24T15:44:38;10.45;;;5.80;;
77955;SDS011;67152;36.266;32.294;2023-04-24T15:47:05;39.38;;;7.25;;
77955;SDS011;67152;36.266;32.294;2023-04-24T15:49:33;11.50;;;5.85;;
77955;SDS011;67152;36.266;32.294;2023-04-24T15:52:00;11.77;;;5.90;;